sensor_id;sensor_type;location;lat;lon;timestamp;temperature;humidity
53045;DHT22;38930;52.766;6.884;2023-01-23T00:01:40;2.40;99.90
53045;DHT22;38930;52.766;6.884;2023-01-23T00:04:15;1.90;99.90
53045;DHT22;38930;52.766;6.884;2023-01-23T00:06:49;2.10;99.90
53045;DHT22;38930;52.766;6.884;2023-01-23T00:09:24;2.10;99.90
53045;DHT22;38930;52.766;6.884;2023-01-23T00:11:59;2.10;99.90
53045;DHT22;38930;52.766;6.884;2023-01-23T00:14:34;2.00;99.90
53045;DHT22;38930;52.766;6.884;2023-01-23T00:17:09;2.10;99.90
53045;DHT22;38930;52.766;6.884;2023-01-23T00:19:45;2.10;99.90
53045;DHT22;38930;52.766;6.884;2023-01-23T00:22:21;2.10;99.90
53045;DHT22;38930;52.766;6.884;2023-01-23T00:24:57;2.00;99.90
53045;DHT22;38930;52.766;6.884;2023-01-23T00:27:32;2.00;99.90
53045;DHT22;38930;52.766;6.884;2023-01-23T00:30:07;2.00;99.90
53045;DHT22;38930;52.766;6.884;2023-01-23T00:32:42;2.00;99.90
53045;DHT22;38930;52.766;6.884;2023-01-23T00:35:18;2.00;99.90
53045;DHT22;38930;52.766;6.884;2023-01-23T00:37:54;1.90;99.90
53045;DHT22;38930;52.766;6.884;2023-01-23T00:40:29;2.00;99.90
53045;DHT22;38930;52.766;6.884;2023-01-23T00:43:05;2.00;99.90
53045;DHT22;38930;52.766;6.884;2023-01-23T00:45:41;2.00;99.90
53045;DHT22;38930;52.766;6.884;2023-01-23T00:48:17;2.00;99.90
53045;DHT22;38930;52.766;6.884;2023-01-23T00:50:52;2.40;99.90
53045;DHT22;38930;52.766;6.884;2023-01-23T00:53:27;2.00;99.90
53045;DHT22;38930;52.766;6.884;2023-01-23T00:56:01;2.00;99.90
53045;DHT22;38930;52.766;6.884;2023-01-23T00:58:36;2.00;99.90
53045;DHT22;38930;52.766;6.884;2023-01-23T01:01:11;2.10;99.90
53045;DHT22;38930;52.766;6.884;2023-01-23T01:03:45;2.00;99.90
53045;DHT22;38930;52.766;6.884;2023-01-23T01:06:19;2.10;99.90
53045;DHT22;38930;52.766;6.884;2023-01-23T01:08:54;2.10;99.90
53045;DHT22;38930;52.766;6.884;2023-01-23T01:11:28;2.00;99.90
53045;DHT22;38930;52.766;6.884;2023-01-23T01:14:03;2.10;99.90
53045;DHT22;38930;52.766;6.884;2023-01-23T01:16:38;2.10;99.90
53045;DHT22;38930;52.766;6.884;2023-01-23T01:19:15;2.00;99.90
53045;DHT22;38930;52.766;6.884;2023-01-23T01:21:50;2.10;99.90
53045;DHT22;38930;52.766;6.884;2023-01-23T01:24:25;2.00;99.90
53045;DHT22;38930;52.766;6.884;2023-01-23T01:27:00;2.10;99.90
53045;DHT22;38930;52.766;6.884;2023-01-23T01:29:34;2.10;99.90
53045;DHT22;38930;52.766;6.884;2023-01-23T01:32:09;2.10;99.90
53045;DHT22;38930;52.766;6.884;2023-01-23T01:34:44;2.10;99.90
53045;DHT22;38930;52.766;6.884;2023-01-23T01:37:19;2.10;99.90
53045;DHT22;38930;52.766;6.884;2023-01-23T01:39:55;2.10;99.90
53045;DHT22;38930;52.766;6.884;2023-01-23T01:42:37;2.10;99.90
53045;DHT22;38930;52.766;6.884;2023-01-23T01:48:18;2.10;99.90
53045;DHT22;38930;52.766;6.884;2023-01-23T01:50:54;2.10;99.90
53045;DHT22;38930;52.766;6.884;2023-01-23T01:53:29;2.10;99.90
53045;DHT22;38930;52.766;6.884;2023-01-23T01:56:06;2.20;99.90
53045;DHT22;38930;52.766;6.884;2023-01-23T01:58:43;2.20;99.90
53045;DHT22;38930;52.766;6.884;2023-01-23T02:01:19;2.20;99.90
53045;DHT22;38930;52.766;6.884;2023-01-23T02:03:54;2.20;99.90
53045;DHT22;38930;52.766;6.884;2023-01-23T02:06:29;2.20;99.90
53045;DHT22;38930;52.766;6.884;2023-01-23T02:09:24;2.20;99.90
53045;DHT22;38930;52.766;6.884;2023-01-23T02:12:00;2.20;99.90
53045;DHT22;38930;52.766;6.884;2023-01-23T02:14:35;2.20;99.90
53045;DHT22;38930;52.766;6.884;2023-01-23T02:17:10;2.20;99.90
53045;DHT22;38930;52.766;6.884;2023-01-23T02:28:16;2.10;99.90
53045;DHT22;38930;52.766;6.884;2023-01-23T02:30:52;2.10;99.90
53045;DHT22;38930;52.766;6.884;2023-01-23T02:35:57;2.10;99.90
53045;DHT22;38930;52.766;6.884;2023-01-23T02:38:36;2.10;99.90
53045;DHT22;38930;52.766;6.884;2023-01-23T02:41:10;2.10;99.90
53045;DHT22;38930;52.766;6.884;2023-01-23T02:43:46;2.10;99.90
53045;DHT22;38930;52.766;6.884;2023-01-23T02:46:22;2.10;99.90
53045;DHT22;38930;52.766;6.884;2023-01-23T02:48:56;2.30;99.90
53045;DHT22;38930;52.766;6.884;2023-01-23T02:51:31;2.10;99.90
53045;DHT22;38930;52.766;6.884;2023-01-23T02:54:06;0.70;99.90
53045;DHT22;38930;52.766;6.884;2023-01-23T02:56:40;2.20;99.90
53045;DHT22;38930;52.766;6.884;2023-01-23T02:59:15;2.20;99.90
53045;DHT22;38930;52.766;6.884;2023-01-23T03:02:04;2.10;99.90
53045;DHT22;38930;52.766;6.884;2023-01-23T03:04:39;2.20;99.90
53045;DHT22;38930;52.766;6.884;2023-01-23T03:07:13;2.20;99.90
53045;DHT22;38930;52.766;6.884;2023-01-23T03:09:48;2.20;99.90
53045;DHT22;38930;52.766;6.884;2023-01-23T03:12:23;2.20;99.90
53045;DHT22;38930;52.766;6.884;2023-01-23T03:14:59;2.30;99.90
53045;DHT22;38930;52.766;6.884;2023-01-23T03:17:35;2.20;99.90
53045;DHT22;38930;52.766;6.884;2023-01-23T03:20:10;2.20;99.90
53045;DHT22;38930;52.766;6.884;2023-01-23T03:22:46;2.20;99.90
53045;DHT22;38930;52.766;6.884;2023-01-23T03:25:21;2.20;99.90
53045;DHT22;38930;52.766;6.884;2023-01-23T03:27:55;2.20;99.90
53045;DHT22;38930;52.766;6.884;2023-01-23T03:30:30;2.40;99.90
53045;DHT22;38930;52.766;6.884;2023-01-23T03:33:04;2.30;99.90
53045;DHT22;38930;52.766;6.884;2023-01-23T03:35:38;2.30;99.90
53045;DHT22;38930;52.766;6.884;2023-01-23T03:38:13;2.30;99.90
53045;DHT22;38930;52.766;6.884;2023-01-23T03:40:50;2.30;99.90
53045;DHT22;38930;52.766;6.884;2023-01-23T03:43:40;2.20;99.90
53045;DHT22;38930;52.766;6.884;2023-01-23T03:46:18;2.20;99.90
53045;DHT22;38930;52.766;6.884;2023-01-23T03:48:55;2.20;99.90
53045;DHT22;38930;52.766;6.884;2023-01-23T03:51:32;2.30;99.90
53045;DHT22;38930;52.766;6.884;2023-01-23T03:54:09;2.30;99.90
53045;DHT22;38930;52.766;6.884;2023-01-23T03:56:46;2.30;99.90
53045;DHT22;38930;52.766;6.884;2023-01-23T03:59:21;2.20;99.90
53045;DHT22;38930;52.766;6.884;2023-01-23T04:01:58;2.20;99.90
53045;DHT22;38930;52.766;6.884;2023-01-23T04:04:34;2.30;99.90
53045;DHT22;38930;52.766;6.884;2023-01-23T04:07:10;2.30;99.90
53045;DHT22;38930;52.766;6.884;2023-01-23T04:09:47;2.30;99.90
53045;DHT22;38930;52.766;6.884;2023-01-23T04:12:24;3.30;99.90
53045;DHT22;38930;52.766;6.884;2023-01-23T04:15:00;2.30;99.90
53045;DHT22;38930;52.766;6.884;2023-01-23T04:17:38;2.20;99.90
53045;DHT22;38930;52.766;6.884;2023-01-23T04:20:14;2.20;99.90
53045;DHT22;38930;52.766;6.884;2023-01-23T04:22:48;2.20;99.90
53045;DHT22;38930;52.766;6.884;2023-01-23T04:25:23;-0.30;99.90
53045;DHT22;38930;52.766;6.884;2023-01-23T04:27:58;2.20;99.90
53045;DHT22;38930;52.766;6.884;2023-01-23T04:30:32;2.20;99.90
53045;DHT22;38930;52.766;6.884;2023-01-23T04:33:07;2.30;99.90
53045;DHT22;38930;52.766;6.884;2023-01-23T04:36:03;2.20;99.90
53045;DHT22;38930;52.766;6.884;2023-01-23T04:38:37;2.20;99.90
53045;DHT22;38930;52.766;6.884;2023-01-23T04:41:21;2.20;99.90
53045;DHT22;38930;52.766;6.884;2023-01-23T04:43:56;2.20;99.90
53045;DHT22;38930;52.766;6.884;2023-01-23T04:46:50;2.30;99.90
53045;DHT22;38930;52.766;6.884;2023-01-23T04:49:23;2.20;99.90
53045;DHT22;38930;52.766;6.884;2023-01-23T04:51:59;2.20;99.90
53045;DHT22;38930;52.766;6.884;2023-01-23T04:54:34;2.20;99.90
53045;DHT22;38930;52.766;6.884;2023-01-23T04:57:09;2.20;99.90
53045;DHT22;38930;52.766;6.884;2023-01-23T04:59:54;2.20;99.90
53045;DHT22;38930;52.766;6.884;2023-01-23T05:02:30;2.10;99.90
53045;DHT22;38930;52.766;6.884;2023-01-23T05:05:06;2.20;99.90
53045;DHT22;38930;52.766;6.884;2023-01-23T05:07:42;2.30;99.90
53045;DHT22;38930;52.766;6.884;2023-01-23T05:10:19;2.20;99.90
53045;DHT22;38930;52.766;6.884;2023-01-23T05:12:54;2.20;99.90
53045;DHT22;38930;52.766;6.884;2023-01-23T05:15:30;2.20;99.90
53045;DHT22;38930;52.766;6.884;2023-01-23T05:18:06;2.20;99.90
53045;DHT22;38930;52.766;6.884;2023-01-23T05:20:41;2.20;99.90
53045;DHT22;38930;52.766;6.884;2023-01-23T05:23:16;2.30;99.90
53045;DHT22;38930;52.766;6.884;2023-01-23T05:25:52;2.20;99.90
53045;DHT22;38930;52.766;6.884;2023-01-23T05:28:28;0.60;99.90
53045;DHT22;38930;52.766;6.884;2023-01-23T05:31:04;2.10;99.90
53045;DHT22;38930;52.766;6.884;2023-01-23T05:33:39;2.20;99.90
53045;DHT22;38930;52.766;6.884;2023-01-23T05:36:14;2.20;99.90
53045;DHT22;38930;52.766;6.884;2023-01-23T05:38:49;2.20;99.90
53045;DHT22;38930;52.766;6.884;2023-01-23T05:41:22;2.20;99.90
53045;DHT22;38930;52.766;6.884;2023-01-23T05:43:48;2.20;99.90
53045;DHT22;38930;52.766;6.884;2023-01-23T05:46:15;2.20;99.90
53045;DHT22;38930;52.766;6.884;2023-01-23T05:48:41;2.10;99.90
53045;DHT22;38930;52.766;6.884;2023-01-23T05:51:10;3.10;99.90
53045;DHT22;38930;52.766;6.884;2023-01-23T05:53:45;2.20;99.90
53045;DHT22;38930;52.766;6.884;2023-01-23T05:56:20;2.10;99.90
53045;DHT22;38930;52.766;6.884;2023-01-23T05:59:01;1.80;99.90
53045;DHT22;38930;52.766;6.884;2023-01-23T06:01:36;1.70;99.90
53045;DHT22;38930;52.766;6.884;2023-01-23T06:04:11;2.20;99.90
53045;DHT22;38930;52.766;6.884;2023-01-23T06:06:46;2.20;99.90
53045;DHT22;38930;52.766;6.884;2023-01-23T06:09:20;2.20;99.90
53045;DHT22;38930;52.766;6.884;2023-01-23T06:11:56;2.10;99.90
53045;DHT22;38930;52.766;6.884;2023-01-23T06:14:31;2.20;99.90
53045;DHT22;38930;52.766;6.884;2023-01-23T06:17:08;2.20;99.90
53045;DHT22;38930;52.766;6.884;2023-01-23T06:19:46;2.20;99.90
53045;DHT22;38930;52.766;6.884;2023-01-23T06:22:18;2.20;99.90
53045;DHT22;38930;52.766;6.884;2023-01-23T06:24:49;1.90;99.90
53045;DHT22;38930;52.766;6.884;2023-01-23T06:28:23;2.10;99.90
53045;DHT22;38930;52.766;6.884;2023-01-23T06:30:39;2.10;99.90
53045;DHT22;38930;52.766;6.884;2023-01-23T06:39:14;2.00;99.90
53045;DHT22;38930;52.766;6.884;2023-01-23T06:41:54;2.00;99.90
53045;DHT22;38930;52.766;6.884;2023-01-23T06:44:28;2.20;99.90
53045;DHT22;38930;52.766;6.884;2023-01-23T06:46:54;2.10;99.90
53045;DHT22;38930;52.766;6.884;2023-01-23T06:49:20;2.10;99.90
53045;DHT22;38930;52.766;6.884;2023-01-23T06:54:13;2.10;99.90
53045;DHT22;38930;52.766;6.884;2023-01-23T06:56:39;2.10;99.90
53045;DHT22;38930;52.766;6.884;2023-01-23T06:59:05;2.10;99.90
53045;DHT22;38930;52.766;6.884;2023-01-23T07:01:35;2.10;99.90
53045;DHT22;38930;52.766;6.884;2023-01-23T07:04:12;2.10;99.90
53045;DHT22;38930;52.766;6.884;2023-01-23T07:06:38;0.70;99.90
53045;DHT22;38930;52.766;6.884;2023-01-23T07:09:06;2.10;99.90
53045;DHT22;38930;52.766;6.884;2023-01-23T07:11:34;2.10;99.90
53045;DHT22;38930;52.766;6.884;2023-01-23T07:14:01;2.10;99.90
53045;DHT22;38930;52.766;6.884;2023-01-23T07:16:27;2.10;99.90
53045;DHT22;38930;52.766;6.884;2023-01-23T07:18:52;2.10;99.90
53045;DHT22;38930;52.766;6.884;2023-01-23T07:21:18;2.20;99.90
53045;DHT22;38930;52.766;6.884;2023-01-23T07:23:44;2.20;99.90
53045;DHT22;38930;52.766;6.884;2023-01-23T07:26:10;2.20;99.90
53045;DHT22;38930;52.766;6.884;2023-01-23T07:28:37;2.80;99.90
53045;DHT22;38930;52.766;6.884;2023-01-23T07:31:04;3.90;99.90
53045;DHT22;38930;52.766;6.884;2023-01-23T07:33:29;2.10;99.90
53045;DHT22;38930;52.766;6.884;2023-01-23T07:35:56;2.20;99.90
53045;DHT22;38930;52.766;6.884;2023-01-23T07:38:22;3.00;99.90
53045;DHT22;38930;52.766;6.884;2023-01-23T07:40:51;2.30;99.90
53045;DHT22;38930;52.766;6.884;2023-01-23T07:43:17;2.10;99.90
53045;DHT22;38930;52.766;6.884;2023-01-23T07:45:43;2.20;99.90
53045;DHT22;38930;52.766;6.884;2023-01-23T07:48:09;2.20;99.90
53045;DHT22;38930;52.766;6.884;2023-01-23T07:50:34;2.20;99.90
53045;DHT22;38930;52.766;6.884;2023-01-23T07:53:02;2.20;99.90
53045;DHT22;38930;52.766;6.884;2023-01-23T07:55:29;2.20;99.90
53045;DHT22;38930;52.766;6.884;2023-01-23T07:57:55;2.20;99.90
53045;DHT22;38930;52.766;6.884;2023-01-23T08:00:21;2.30;99.90
53045;DHT22;38930;52.766;6.884;2023-01-23T08:02:47;2.20;99.90
53045;DHT22;38930;52.766;6.884;2023-01-23T08:05:12;2.20;99.90
53045;DHT22;38930;52.766;6.884;2023-01-23T08:07:38;2.20;99.90
53045;DHT22;38930;52.766;6.884;2023-01-23T08:10:04;2.30;99.90
53045;DHT22;38930;52.766;6.884;2023-01-23T08:12:29;2.30;99.90
53045;DHT22;38930;52.766;6.884;2023-01-23T08:14:55;2.30;99.90
53045;DHT22;38930;52.766;6.884;2023-01-23T08:17:21;2.30;99.90
53045;DHT22;38930;52.766;6.884;2023-01-23T08:19:46;2.30;99.90
53045;DHT22;38930;52.766;6.884;2023-01-23T08:22:13;2.30;99.90
53045;DHT22;38930;52.766;6.884;2023-01-23T08:24:38;2.30;99.90
53045;DHT22;38930;52.766;6.884;2023-01-23T08:27:04;2.30;99.90
53045;DHT22;38930;52.766;6.884;2023-01-23T08:29:30;2.40;99.90
53045;DHT22;38930;52.766;6.884;2023-01-23T08:31:56;2.40;99.90
53045;DHT22;38930;52.766;6.884;2023-01-23T08:34:21;2.40;99.90
53045;DHT22;38930;52.766;6.884;2023-01-23T08:36:48;2.40;99.90
53045;DHT22;38930;52.766;6.884;2023-01-23T08:39:16;2.50;99.90
53045;DHT22;38930;52.766;6.884;2023-01-23T08:41:41;2.50;99.90
53045;DHT22;38930;52.766;6.884;2023-01-23T08:44:07;2.50;99.90
53045;DHT22;38930;52.766;6.884;2023-01-23T08:46:33;2.50;99.90
53045;DHT22;38930;52.766;6.884;2023-01-23T08:48:58;2.60;99.90
53045;DHT22;38930;52.766;6.884;2023-01-23T08:51:24;2.60;99.90
53045;DHT22;38930;52.766;6.884;2023-01-23T08:53:51;2.60;99.90
53045;DHT22;38930;52.766;6.884;2023-01-23T08:56:19;2.60;99.90
53045;DHT22;38930;52.766;6.884;2023-01-23T08:58:45;2.60;99.90
53045;DHT22;38930;52.766;6.884;2023-01-23T09:01:18;2.60;99.90
53045;DHT22;38930;52.766;6.884;2023-01-23T09:03:45;2.60;99.90
53045;DHT22;38930;52.766;6.884;2023-01-23T09:06:11;2.60;99.90
53045;DHT22;38930;52.766;6.884;2023-01-23T09:08:37;2.70;99.90
53045;DHT22;38930;52.766;6.884;2023-01-23T09:11:05;2.70;99.90
53045;DHT22;38930;52.766;6.884;2023-01-23T09:13:31;2.70;99.90
53045;DHT22;38930;52.766;6.884;2023-01-23T09:15:57;2.70;99.90
53045;DHT22;38930;52.766;6.884;2023-01-23T09:18:23;2.70;99.90
53045;DHT22;38930;52.766;6.884;2023-01-23T09:20:50;2.70;99.90
53045;DHT22;38930;52.766;6.884;2023-01-23T09:23:16;2.80;99.90
53045;DHT22;38930;52.766;6.884;2023-01-23T09:25:42;2.80;99.90
53045;DHT22;38930;52.766;6.884;2023-01-23T09:28:08;2.80;99.90
53045;DHT22;38930;52.766;6.884;2023-01-23T09:30:34;2.80;99.90
53045;DHT22;38930;52.766;6.884;2023-01-23T09:32:59;2.80;99.90
53045;DHT22;38930;52.766;6.884;2023-01-23T09:35:25;2.90;99.90
53045;DHT22;38930;52.766;6.884;2023-01-23T09:37:51;2.90;99.90
53045;DHT22;38930;52.766;6.884;2023-01-23T09:42:57;2.90;99.90
53045;DHT22;38930;52.766;6.884;2023-01-23T09:45:24;2.90;99.90
53045;DHT22;38930;52.766;6.884;2023-01-23T09:50:50;3.00;99.90
53045;DHT22;38930;52.766;6.884;2023-01-23T10:49:04;3.20;99.90
53045;DHT22;38930;52.766;6.884;2023-01-23T10:54:17;3.20;99.90
53045;DHT22;38930;52.766;6.884;2023-01-23T10:59:37;3.30;99.90
53045;DHT22;38930;52.766;6.884;2023-01-23T11:04:40;3.30;99.90
53045;DHT22;38930;52.766;6.884;2023-01-23T11:07:20;3.30;99.90
53045;DHT22;38930;52.766;6.884;2023-01-23T11:09:55;3.40;99.90
53045;DHT22;38930;52.766;6.884;2023-01-23T11:12:26;3.40;99.90
53045;DHT22;38930;52.766;6.884;2023-01-23T11:15:12;3.50;99.90
53045;DHT22;38930;52.766;6.884;2023-01-23T11:17:38;3.50;99.90
53045;DHT22;38930;52.766;6.884;2023-01-23T11:22:45;3.60;99.90
53045;DHT22;38930;52.766;6.884;2023-01-23T11:28:20;3.70;99.90
53045;DHT22;38930;52.766;6.884;2023-01-23T11:31:13;3.70;99.90
53045;DHT22;38930;52.766;6.884;2023-01-23T11:38:57;3.70;99.90
53045;DHT22;38930;52.766;6.884;2023-01-23T11:41:29;3.90;99.90
53045;DHT22;38930;52.766;6.884;2023-01-23T11:43:55;3.60;99.90
53045;DHT22;38930;52.766;6.884;2023-01-23T11:49:18;3.70;99.90
53045;DHT22;38930;52.766;6.884;2023-01-23T11:52:16;3.70;99.90
53045;DHT22;38930;52.766;6.884;2023-01-23T12:16:32;4.40;99.90
53045;DHT22;38930;52.766;6.884;2023-01-23T12:21:59;3.90;99.90
53045;DHT22;38930;52.766;6.884;2023-01-23T12:32:58;3.90;99.90
53045;DHT22;38930;52.766;6.884;2023-01-23T12:38:18;4.00;99.90
53045;DHT22;38930;52.766;6.884;2023-01-23T12:41:05;4.00;99.90
53045;DHT22;38930;52.766;6.884;2023-01-23T12:43:37;4.00;99.90
53045;DHT22;38930;52.766;6.884;2023-01-23T12:46:13;4.00;99.90
53045;DHT22;38930;52.766;6.884;2023-01-23T12:51:33;4.00;99.90
53045;DHT22;38930;52.766;6.884;2023-01-23T12:54:04;4.00;99.90
53045;DHT22;38930;52.766;6.884;2023-01-23T12:56:34;4.00;99.90
53045;DHT22;38930;52.766;6.884;2023-01-23T12:59:16;4.10;99.90
53045;DHT22;38930;52.766;6.884;2023-01-23T13:01:59;4.10;99.90
53045;DHT22;38930;52.766;6.884;2023-01-23T13:10:13;4.20;99.90
53045;DHT22;38930;52.766;6.884;2023-01-23T13:12:40;4.10;99.90
53045;DHT22;38930;52.766;6.884;2023-01-23T13:15:31;4.10;99.90
53045;DHT22;38930;52.766;6.884;2023-01-23T13:17:59;4.10;99.90
53045;DHT22;38930;52.766;6.884;2023-01-23T13:23:31;4.10;99.90
53045;DHT22;38930;52.766;6.884;2023-01-23T13:28:46;4.10;99.90
53045;DHT22;38930;52.766;6.884;2023-01-23T13:31:32;4.10;99.90
53045;DHT22;38930;52.766;6.884;2023-01-23T13:33:58;4.20;99.90
53045;DHT22;38930;52.766;6.884;2023-01-23T13:36:34;4.10;99.90
53045;DHT22;38930;52.766;6.884;2023-01-23T13:39:03;4.10;99.90
53045;DHT22;38930;52.766;6.884;2023-01-23T13:41:31;4.10;99.90
53045;DHT22;38930;52.766;6.884;2023-01-23T13:44:19;4.10;99.90
53045;DHT22;38930;52.766;6.884;2023-01-23T13:52:27;4.10;99.90
53045;DHT22;38930;52.766;6.884;2023-01-23T13:55:21;4.20;99.90
53045;DHT22;38930;52.766;6.884;2023-01-23T13:58:09;4.10;99.90
53045;DHT22;38930;52.766;6.884;2023-01-23T14:00:37;4.20;99.90
53045;DHT22;38930;52.766;6.884;2023-01-23T14:03:27;4.10;99.90
53045;DHT22;38930;52.766;6.884;2023-01-23T14:06:13;3.40;99.90
53045;DHT22;38930;52.766;6.884;2023-01-23T14:08:51;4.10;99.90
53045;DHT22;38930;52.766;6.884;2023-01-23T14:11:19;4.10;99.90
53045;DHT22;38930;52.766;6.884;2023-01-23T14:13:53;4.10;99.90
53045;DHT22;38930;52.766;6.884;2023-01-23T14:16:43;4.10;99.90
53045;DHT22;38930;52.766;6.884;2023-01-23T14:19:26;4.10;99.90
53045;DHT22;38930;52.766;6.884;2023-01-23T14:21:57;4.10;99.90
53045;DHT22;38930;52.766;6.884;2023-01-23T14:24:45;4.10;99.90
53045;DHT22;38930;52.766;6.884;2023-01-23T14:27:20;4.10;99.90
53045;DHT22;38930;52.766;6.884;2023-01-23T14:30:17;4.10;99.90
53045;DHT22;38930;52.766;6.884;2023-01-23T14:32:43;4.10;99.90
53045;DHT22;38930;52.766;6.884;2023-01-23T14:35:32;4.10;99.90
53045;DHT22;38930;52.766;6.884;2023-01-23T14:38:04;4.00;99.90
53045;DHT22;38930;52.766;6.884;2023-01-23T14:40:30;4.00;99.90
53045;DHT22;38930;52.766;6.884;2023-01-23T14:43:00;4.00;99.90
53045;DHT22;38930;52.766;6.884;2023-01-23T14:45:33;4.00;99.90
53045;DHT22;38930;52.766;6.884;2023-01-23T14:48:00;4.00;99.90
53045;DHT22;38930;52.766;6.884;2023-01-23T14:50:28;4.00;99.90
53045;DHT22;38930;52.766;6.884;2023-01-23T14:53:14;4.00;99.90
53045;DHT22;38930;52.766;6.884;2023-01-23T14:55:43;4.00;99.90
53045;DHT22;38930;52.766;6.884;2023-01-23T14:58:18;3.90;99.90
53045;DHT22;38930;52.766;6.884;2023-01-23T15:00:47;3.90;99.90
53045;DHT22;38930;52.766;6.884;2023-01-23T15:03:33;3.90;99.90
53045;DHT22;38930;52.766;6.884;2023-01-23T15:05:59;3.90;99.90
53045;DHT22;38930;52.766;6.884;2023-01-23T15:08:32;4.20;99.90
53045;DHT22;38930;52.766;6.884;2023-01-23T15:10:59;3.90;99.90
53045;DHT22;38930;52.766;6.884;2023-01-23T15:13:35;3.80;99.90
53045;DHT22;38930;52.766;6.884;2023-01-23T15:18:55;3.80;99.90
53045;DHT22;38930;52.766;6.884;2023-01-23T15:21:40;3.70;99.90
53045;DHT22;38930;52.766;6.884;2023-01-23T15:26:41;3.70;99.90
53045;DHT22;38930;52.766;6.884;2023-01-23T15:36:35;3.70;99.90
53045;DHT22;38930;52.766;6.884;2023-01-23T15:39:02;3.60;99.90
53045;DHT22;38930;52.766;6.884;2023-01-23T15:41:46;3.60;99.90
53045;DHT22;38930;52.766;6.884;2023-01-23T15:44:14;3.60;99.90
53045;DHT22;38930;52.766;6.884;2023-01-23T15:46:40;4.80;99.90
53045;DHT22;38930;52.766;6.884;2023-01-23T15:49:06;4.40;99.90
53045;DHT22;38930;52.766;6.884;2023-01-23T15:51:32;3.50;99.90
53045;DHT22;38930;52.766;6.884;2023-01-23T15:53:58;3.50;99.90
53045;DHT22;38930;52.766;6.884;2023-01-23T15:56:27;3.50;99.90
53045;DHT22;38930;52.766;6.884;2023-01-23T15:58:53;3.60;99.90
53045;DHT22;38930;52.766;6.884;2023-01-23T16:01:20;3.50;99.90
53045;DHT22;38930;52.766;6.884;2023-01-23T16:03:45;3.50;99.90
53045;DHT22;38930;52.766;6.884;2023-01-23T16:06:18;3.50;99.90
53045;DHT22;38930;52.766;6.884;2023-01-23T16:08:46;3.50;99.90
53045;DHT22;38930;52.766;6.884;2023-01-23T16:11:12;3.40;99.90
53045;DHT22;38930;52.766;6.884;2023-01-23T16:13:38;3.40;99.90
53045;DHT22;38930;52.766;6.884;2023-01-23T16:16:11;3.40;99.90
53045;DHT22;38930;52.766;6.884;2023-01-23T16:18:37;3.40;99.90
53045;DHT22;38930;52.766;6.884;2023-01-23T16:21:03;3.40;99.90
53045;DHT22;38930;52.766;6.884;2023-01-23T16:23:28;3.40;99.90
53045;DHT22;38930;52.766;6.884;2023-01-23T16:25:54;1.80;99.90
53045;DHT22;38930;52.766;6.884;2023-01-23T16:28:22;4.50;99.90
53045;DHT22;38930;52.766;6.884;2023-01-23T16:30:48;3.30;99.90
53045;DHT22;38930;52.766;6.884;2023-01-23T16:33:15;4.70;99.90
53045;DHT22;38930;52.766;6.884;2023-01-23T16:35:41;3.30;99.90
53045;DHT22;38930;52.766;6.884;2023-01-23T16:38:23;3.30;99.90
53045;DHT22;38930;52.766;6.884;2023-01-23T16:40:50;3.30;99.90
53045;DHT22;38930;52.766;6.884;2023-01-23T16:43:18;3.30;99.90
53045;DHT22;38930;52.766;6.884;2023-01-23T16:45:43;3.30;99.90
53045;DHT22;38930;52.766;6.884;2023-01-23T16:48:09;3.30;99.90
53045;DHT22;38930;52.766;6.884;2023-01-23T16:50:43;3.30;99.90
53045;DHT22;38930;52.766;6.884;2023-01-23T16:53:19;3.20;99.90
53045;DHT22;38930;52.766;6.884;2023-01-23T16:55:47;3.20;99.90
53045;DHT22;38930;52.766;6.884;2023-01-23T16:58:20;3.20;99.90
53045;DHT22;38930;52.766;6.884;2023-01-23T17:00:47;3.20;99.90
53045;DHT22;38930;52.766;6.884;2023-01-23T17:03:21;3.20;99.90
53045;DHT22;38930;52.766;6.884;2023-01-23T17:05:47;3.20;99.90
53045;DHT22;38930;52.766;6.884;2023-01-23T17:08:16;3.90;99.90
53045;DHT22;38930;52.766;6.884;2023-01-23T17:10:43;3.20;99.90
53045;DHT22;38930;52.766;6.884;2023-01-23T17:13:10;3.20;99.90
53045;DHT22;38930;52.766;6.884;2023-01-23T17:15:36;2.90;99.90
53045;DHT22;38930;52.766;6.884;2023-01-23T17:18:02;3.10;99.90
53045;DHT22;38930;52.766;6.884;2023-01-23T17:20:28;3.10;99.90
53045;DHT22;38930;52.766;6.884;2023-01-23T17:22:54;3.10;99.90
53045;DHT22;38930;52.766;6.884;2023-01-23T17:25:22;3.10;99.90
53045;DHT22;38930;52.766;6.884;2023-01-23T17:27:49;3.10;99.90
53045;DHT22;38930;52.766;6.884;2023-01-23T17:30:23;3.10;99.90
53045;DHT22;38930;52.766;6.884;2023-01-23T17:32:52;3.10;99.90
53045;DHT22;38930;52.766;6.884;2023-01-23T17:35:22;3.10;99.90
53045;DHT22;38930;52.766;6.884;2023-01-23T17:37:53;3.20;99.90
53045;DHT22;38930;52.766;6.884;2023-01-23T17:40:19;3.10;99.90
53045;DHT22;38930;52.766;6.884;2023-01-23T17:42:45;3.10;99.90
53045;DHT22;38930;52.766;6.884;2023-01-23T17:45:15;3.10;99.90
53045;DHT22;38930;52.766;6.884;2023-01-23T17:47:46;3.10;99.90
53045;DHT22;38930;52.766;6.884;2023-01-23T17:50:21;3.10;99.90
53045;DHT22;38930;52.766;6.884;2023-01-23T17:52:48;3.20;99.90
53045;DHT22;38930;52.766;6.884;2023-01-23T17:55:22;3.20;99.90
53045;DHT22;38930;52.766;6.884;2023-01-23T17:57:49;4.10;99.90
53045;DHT22;38930;52.766;6.884;2023-01-23T18:00:17;3.10;99.90
53045;DHT22;38930;52.766;6.884;2023-01-23T18:03:07;3.10;99.90
53045;DHT22;38930;52.766;6.884;2023-01-23T18:05:35;3.10;99.90
53045;DHT22;38930;52.766;6.884;2023-01-23T18:08:01;4.00;99.90
53045;DHT22;38930;52.766;6.884;2023-01-23T18:10:27;3.10;99.90
53045;DHT22;38930;52.766;6.884;2023-01-23T18:13:03;3.10;99.90
53045;DHT22;38930;52.766;6.884;2023-01-23T18:15:55;3.10;99.90
53045;DHT22;38930;52.766;6.884;2023-01-23T18:20:53;3.10;99.90
53045;DHT22;38930;52.766;6.884;2023-01-23T18:23:23;3.10;99.90
53045;DHT22;38930;52.766;6.884;2023-01-23T18:26:14;3.10;99.90
53045;DHT22;38930;52.766;6.884;2023-01-23T18:31:43;3.10;99.90
53045;DHT22;38930;52.766;6.884;2023-01-23T18:42:23;3.10;99.90
53045;DHT22;38930;52.766;6.884;2023-01-23T18:44:55;3.10;99.90
53045;DHT22;38930;52.766;6.884;2023-01-23T18:47:22;3.10;99.90
53045;DHT22;38930;52.766;6.884;2023-01-23T18:49:49;3.10;99.90
53045;DHT22;38930;52.766;6.884;2023-01-23T18:55:16;3.10;99.90
53045;DHT22;38930;52.766;6.884;2023-01-23T19:00:39;3.10;99.90
53045;DHT22;38930;52.766;6.884;2023-01-23T19:03:16;3.10;99.90
53045;DHT22;38930;52.766;6.884;2023-01-23T19:05:43;3.00;99.90
53045;DHT22;38930;52.766;6.884;2023-01-23T19:08:27;3.10;99.90
53045;DHT22;38930;52.766;6.884;2023-01-23T19:10:56;3.00;99.90
53045;DHT22;38930;52.766;6.884;2023-01-23T19:13:30;3.10;99.90
53045;DHT22;38930;52.766;6.884;2023-01-23T19:21:47;3.00;99.90
53045;DHT22;38930;52.766;6.884;2023-01-23T19:24:14;3.00;99.90
53045;DHT22;38930;52.766;6.884;2023-01-23T19:26:42;3.00;99.90
53045;DHT22;38930;52.766;6.884;2023-01-23T19:29:09;3.00;99.90
53045;DHT22;38930;52.766;6.884;2023-01-23T19:31:37;3.10;99.90
53045;DHT22;38930;52.766;6.884;2023-01-23T19:34:04;3.00;99.90
53045;DHT22;38930;52.766;6.884;2023-01-23T19:36:33;3.10;99.90
53045;DHT22;38930;52.766;6.884;2023-01-23T19:38:59;3.00;99.90